sensor_id;sensor_type;location;lat;lon;timestamp;pressure;altitude;pressure_sealevel;temperature;humidity
25130;BME280;13308;50.860;13.664;2023-02-28T06:57:09;97961.16;;;-5.88;100.00
25130;BME280;13308;50.860;13.664;2023-02-28T06:59:35;97962.63;;;-5.77;100.00
25130;BME280;13308;50.860;13.664;2023-02-28T07:02:01;97969.81;;;-5.72;100.00
25130;BME280;13308;50.860;13.664;2023-02-28T07:04:27;97964.56;;;-5.59;100.00
25130;BME280;13308;50.860;13.664;2023-02-28T07:06:52;97958.75;;;-5.47;100.00
25130;BME280;13308;50.860;13.664;2023-02-28T07:09:21;97966.88;;;-5.29;100.00
25130;BME280;13308;50.860;13.664;2023-02-28T07:11:47;97959.19;;;-5.17;100.00
25130;BME280;13308;50.860;13.664;2023-02-28T07:14:12;97968.94;;;-5.02;100.00
25130;BME280;13308;50.860;13.664;2023-02-28T07:16:37;97971.88;;;-4.85;100.00
25130;BME280;13308;50.860;13.664;2023-02-28T07:19:03;97974.88;;;-4.87;100.00
25130;BME280;13308;50.860;13.664;2023-02-28T07:21:28;97974.41;;;-4.57;100.00
25130;BME280;13308;50.860;13.664;2023-02-28T07:23:55;97969.78;;;-4.70;100.00
25130;BME280;13308;50.860;13.664;2023-02-28T07:26:21;97981.53;;;-4.47;100.00
25130;BME280;13308;50.860;13.664;2023-02-28T07:28:47;97979.81;;;-4.25;100.00
25130;BME280;13308;50.860;13.664;2023-02-28T07:31:14;97979.72;;;-4.20;100.00
25130;BME280;13308;50.860;13.664;2023-02-28T07:33:40;97982.66;;;-4.35;100.00
25130;BME280;13308;50.860;13.664;2023-02-28T07:36:09;97975.09;;;-4.33;100.00
25130;BME280;13308;50.860;13.664;2023-02-28T07:38:39;97979.81;;;-4.25;100.00
25130;BME280;13308;50.860;13.664;2023-02-28T07:41:04;97979.44;;;-4.05;100.00
25130;BME280;13308;50.860;13.664;2023-02-28T07:43:31;97986.78;;;-3.92;100.00
25130;BME280;13308;50.860;13.664;2023-02-28T07:46:02;97982.88;;;-3.72;100.00
25130;BME280;13308;50.860;13.664;2023-02-28T07:48:27;97983.09;;;-3.42;100.00
25130;BME280;13308;50.860;13.664;2023-02-28T07:50:57;97983.88;;;-3.28;100.00
25130;BME280;13308;50.860;13.664;2023-02-28T07:53:22;97992.44;;;-2.99;100.00
25130;BME280;13308;50.860;13.664;2023-02-28T07:55:47;97988.88;;;-2.94;100.00
25130;BME280;13308;50.860;13.664;2023-02-28T07:58:13;97987.94;;;-2.90;100.00
25130;BME280;13308;50.860;13.664;2023-02-28T08:00:38;97984.06;;;-2.97;100.00
25130;BME280;13308;50.860;13.664;2023-02-28T08:03:03;97984.63;;;-2.87;100.00
25130;BME280;13308;50.860;13.664;2023-02-28T08:05:29;98000.53;;;-2.50;100.00
25130;BME280;13308;50.860;13.664;2023-02-28T08:07:56;97999.06;;;-2.34;100.00
25130;BME280;13308;50.860;13.664;2023-02-28T08:10:22;97996.59;;;-2.22;100.00
25130;BME280;13308;50.860;13.664;2023-02-28T08:12:47;98004.00;;;-1.83;100.00
25130;BME280;13308;50.860;13.664;2023-02-28T08:15:12;98001.00;;;-1.51;100.00
25130;BME280;13308;50.860;13.664;2023-02-28T08:17:38;98000.88;;;-1.38;100.00
25130;BME280;13308;50.860;13.664;2023-02-28T08:20:03;97999.41;;;-1.05;100.00
25130;BME280;13308;50.860;13.664;2023-02-28T08:22:29;98001.97;;;-1.00;100.00
25130;BME280;13308;50.860;13.664;2023-02-28T08:24:54;97993.66;;;-1.12;99.06
25130;BME280;13308;50.860;13.664;2023-02-28T08:27:20;98003.81;;;-0.53;100.00
25130;BME280;13308;50.860;13.664;2023-02-28T08:29:45;98000.13;;;-0.23;99.66
25130;BME280;13308;50.860;13.664;2023-02-28T08:32:10;97996.13;;;0.00;96.84
25130;BME280;13308;50.860;13.664;2023-02-28T08:34:39;98008.69;;;0.30;94.96
25130;BME280;13308;50.860;13.664;2023-02-28T08:37:04;98006.44;;;0.78;94.38
25130;BME280;13308;50.860;13.664;2023-02-28T08:39:35;98012.16;;;1.14;90.82
25130;BME280;13308;50.860;13.664;2023-02-28T08:42:02;98015.00;;;1.67;89.27
25130;BME280;13308;50.860;13.664;2023-02-28T08:44:27;98019.63;;;1.87;84.62
25130;BME280;13308;50.860;13.664;2023-02-28T08:46:53;98025.59;;;2.01;82.45
25130;BME280;13308;50.860;13.664;2023-02-28T08:49:18;98026.44;;;2.46;81.07
25130;BME280;13308;50.860;13.664;2023-02-28T08:51:43;98027.06;;;2.75;76.67
25130;BME280;13308;50.860;13.664;2023-02-28T08:54:09;98028.66;;;2.88;75.40
25130;BME280;13308;50.860;13.664;2023-02-28T08:56:38;98026.97;;;3.44;75.35
25130;BME280;13308;50.860;13.664;2023-02-28T08:59:03;98027.88;;;3.60;73.33
25130;BME280;13308;50.860;13.664;2023-02-28T09:01:29;98027.63;;;3.77;69.20
25130;BME280;13308;50.860;13.664;2023-02-28T09:03:55;98029.69;;;4.35;72.18
25130;BME280;13308;50.860;13.664;2023-02-28T09:06:23;98033.06;;;3.77;65.46
25130;BME280;13308;50.860;13.664;2023-02-28T09:08:49;98031.88;;;4.72;70.62
25130;BME280;13308;50.860;13.664;2023-02-28T09:11:15;98038.88;;;5.32;65.76
25130;BME280;13308;50.860;13.664;2023-02-28T09:13:40;98040.97;;;4.92;62.74
25130;BME280;13308;50.860;13.664;2023-02-28T09:16:08;98031.91;;;5.19;63.93
25130;BME280;13308;50.860;13.664;2023-02-28T09:18:36;98031.06;;;5.49;61.71
25130;BME280;13308;50.860;13.664;2023-02-28T09:21:06;98027.19;;;5.66;61.22
25130;BME280;13308;50.860;13.664;2023-02-28T09:23:32;98031.78;;;5.62;59.58
25130;BME280;13308;50.860;13.664;2023-02-28T09:25:57;98031.56;;;6.05;62.77
25130;BME280;13308;50.860;13.664;2023-02-28T09:28:24;98037.19;;;5.93;58.30
25130;BME280;13308;50.860;13.664;2023-02-28T09:30:51;98031.59;;;5.55;59.31
25130;BME280;13308;50.860;13.664;2023-02-28T09:33:17;98032.44;;;6.09;60.10
25130;BME280;13308;50.860;13.664;2023-02-28T09:35:46;98027.97;;;6.01;57.10
25130;BME280;13308;50.860;13.664;2023-02-28T09:38:12;98030.50;;;6.09;57.46
25130;BME280;13308;50.860;13.664;2023-02-28T09:43:14;98030.00;;;6.61;56.38
25130;BME280;13308;50.860;13.664;2023-02-28T09:45:42;98034.03;;;6.67;58.00
25130;BME280;13308;50.860;13.664;2023-02-28T09:48:14;98040.38;;;7.16;57.64
25130;BME280;13308;50.860;13.664;2023-02-28T09:50:45;98037.09;;;7.07;56.38
25130;BME280;13308;50.860;13.664;2023-02-28T09:53:33;98032.75;;;6.83;55.92
25130;BME280;13308;50.860;13.664;2023-02-28T09:56:18;98032.72;;;6.42;54.54
25130;BME280;13308;50.860;13.664;2023-02-28T09:59:04;98039.00;;;6.84;55.21
25130;BME280;13308;50.860;13.664;2023-02-28T10:01:37;98036.50;;;6.34;54.63
25130;BME280;13308;50.860;13.664;2023-02-28T10:04:36;98035.91;;;6.44;55.37
25130;BME280;13308;50.860;13.664;2023-02-28T10:07:36;98025.88;;;5.29;56.78
25130;BME280;13308;50.860;13.664;2023-02-28T10:10:26;98026.63;;;5.26;57.26
25130;BME280;13308;50.860;13.664;2023-02-28T10:12:54;98012.75;;;4.88;59.20
25130;BME280;13308;50.860;13.664;2023-02-28T10:15:23;98016.09;;;4.66;59.89
25130;BME280;13308;50.860;13.664;2023-02-28T10:17:54;98026.41;;;5.50;57.81
25130;BME280;13308;50.860;13.664;2023-02-28T10:20:23;98026.00;;;5.17;57.98
25130;BME280;13308;50.860;13.664;2023-02-28T10:23:20;98026.59;;;5.76;58.87
25130;BME280;13308;50.860;13.664;2023-02-28T10:25:59;98023.97;;;5.64;57.63
25130;BME280;13308;50.860;13.664;2023-02-28T10:28:26;98021.91;;;6.30;56.39
25130;BME280;13308;50.860;13.664;2023-02-28T10:30:53;98029.84;;;6.54;54.61
25130;BME280;13308;50.860;13.664;2023-02-28T10:33:28;98037.72;;;6.97;54.83
25130;BME280;13308;50.860;13.664;2023-02-28T10:35:54;98029.66;;;6.85;54.17
25130;BME280;13308;50.860;13.664;2023-02-28T10:38:22;98028.06;;;7.29;53.87
25130;BME280;13308;50.860;13.664;2023-02-28T10:40:49;98028.41;;;7.76;52.84
25130;BME280;13308;50.860;13.664;2023-02-28T10:46:13;98027.69;;;7.82;52.78
25130;BME280;13308;50.860;13.664;2023-02-28T10:48:42;98026.75;;;7.97;52.90
25130;BME280;13308;50.860;13.664;2023-02-28T10:51:16;98038.97;;;8.29;52.20
25130;BME280;13308;50.860;13.664;2023-02-28T10:58:58;98028.81;;;8.04;50.57
25130;BME280;13308;50.860;13.664;2023-02-28T11:01:35;98024.34;;;8.51;50.75
25130;BME280;13308;50.860;13.664;2023-02-28T11:04:00;98019.38;;;8.31;50.95
25130;BME280;13308;50.860;13.664;2023-02-28T11:06:31;98021.91;;;8.17;51.40
25130;BME280;13308;50.860;13.664;2023-02-28T11:09:00;98010.31;;;8.01;51.36
25130;BME280;13308;50.860;13.664;2023-02-28T11:11:29;98014.44;;;8.43;51.51
25130;BME280;13308;50.860;13.664;2023-02-28T11:14:02;98024.94;;;8.38;51.30
25130;BME280;13308;50.860;13.664;2023-02-28T11:16:35;98017.09;;;8.72;52.35
25130;BME280;13308;50.860;13.664;2023-02-28T11:19:02;98026.66;;;9.22;48.89
25130;BME280;13308;50.860;13.664;2023-02-28T11:21:32;98019.00;;;8.68;50.79
25130;BME280;13308;50.860;13.664;2023-02-28T11:24:31;98010.03;;;9.11;49.88
25130;BME280;13308;50.860;13.664;2023-02-28T11:26:58;98013.44;;;8.98;49.59
25130;BME280;13308;50.860;13.664;2023-02-28T11:29:29;98006.47;;;8.35;50.96
25130;BME280;13308;50.860;13.664;2023-02-28T11:37:27;97991.75;;;8.89;51.30
25130;BME280;13308;50.860;13.664;2023-02-28T11:39:52;97995.31;;;8.53;50.62
25130;BME280;13308;50.860;13.664;2023-02-28T11:42:30;97989.19;;;8.70;50.10
25130;BME280;13308;50.860;13.664;2023-02-28T11:45:15;97988.59;;;8.87;50.28
25130;BME280;13308;50.860;13.664;2023-02-28T11:50:45;97989.91;;;8.64;49.37
25130;BME280;13308;50.860;13.664;2023-02-28T11:53:42;97994.06;;;8.84;49.38
25130;BME280;13308;50.860;13.664;2023-02-28T11:56:32;97980.63;;;8.10;50.18
25130;BME280;13308;50.860;13.664;2023-02-28T12:04:49;97983.78;;;9.75;49.19
25130;BME280;13308;50.860;13.664;2023-02-28T12:07:42;97985.50;;;10.00;47.62
25130;BME280;13308;50.860;13.664;2023-02-28T12:10:34;97979.84;;;9.79;46.64
25130;BME280;13308;50.860;13.664;2023-02-28T12:13:14;97972.59;;;9.54;48.08
25130;BME280;13308;50.860;13.664;2023-02-28T12:16:12;97979.00;;;9.68;48.32
25130;BME280;13308;50.860;13.664;2023-02-28T12:18:51;97983.78;;;9.78;48.50
25130;BME280;13308;50.860;13.664;2023-02-28T12:21:50;97980.50;;;9.59;48.36
25130;BME280;13308;50.860;13.664;2023-02-28T12:24:52;97969.22;;;9.81;47.83
25130;BME280;13308;50.860;13.664;2023-02-28T12:27:13;97970.91;;;9.35;47.74
25130;BME280;13308;50.860;13.664;2023-02-28T12:29:47;97973.75;;;9.46;47.45
25130;BME280;13308;50.860;13.664;2023-02-28T12:32:20;97977.63;;;10.02;47.48
25130;BME280;13308;50.860;13.664;2023-02-28T12:34:53;97979.94;;;9.93;47.49
25130;BME280;13308;50.860;13.664;2023-02-28T12:37:25;97981.66;;;10.15;47.38
25130;BME280;13308;50.860;13.664;2023-02-28T12:40:00;97972.28;;;10.34;45.84
25130;BME280;13308;50.860;13.664;2023-02-28T12:42:33;97972.41;;;10.69;46.43
25130;BME280;13308;50.860;13.664;2023-02-28T12:45:10;97970.03;;;10.81;47.08
25130;BME280;13308;50.860;13.664;2023-02-28T12:47:40;97972.41;;;10.86;45.95
25130;BME280;13308;50.860;13.664;2023-02-28T12:50:09;97974.41;;;10.96;46.52
25130;BME280;13308;50.860;13.664;2023-02-28T12:55:29;97964.94;;;11.46;46.13
25130;BME280;13308;50.860;13.664;2023-02-28T13:00:38;97966.81;;;10.44;47.27
25130;BME280;13308;50.860;13.664;2023-02-28T13:06:05;97964.50;;;10.64;45.38
25130;BME280;13308;50.860;13.664;2023-02-28T13:11:24;97972.78;;;10.64;46.14
25130;BME280;13308;50.860;13.664;2023-02-28T13:13:58;97961.78;;;11.44;44.19
25130;BME280;13308;50.860;13.664;2023-02-28T13:16:24;97960.59;;;11.24;45.01
25130;BME280;13308;50.860;13.664;2023-02-28T13:18:49;97956.66;;;11.04;45.36
25130;BME280;13308;50.860;13.664;2023-02-28T13:21:23;97965.72;;;11.75;44.72
25130;BME280;13308;50.860;13.664;2023-02-28T13:34:31;97969.66;;;11.91;44.76
25130;BME280;13308;50.860;13.664;2023-02-28T13:43:07;97962.53;;;11.97;42.59
25130;BME280;13308;50.860;13.664;2023-02-28T13:47:49;97959.38;;;11.88;42.22
25130;BME280;13308;50.860;13.664;2023-02-28T13:50:32;97954.28;;;11.48;42.61
25130;BME280;13308;50.860;13.664;2023-02-28T13:58:35;97948.28;;;12.02;42.94
25130;BME280;13308;50.860;13.664;2023-02-28T14:01:26;97942.81;;;11.53;42.64
25130;BME280;13308;50.860;13.664;2023-02-28T14:04:22;97946.09;;;12.48;43.40
25130;BME280;13308;50.860;13.664;2023-02-28T14:06:54;97948.25;;;12.85;42.80
25130;BME280;13308;50.860;13.664;2023-02-28T14:09:30;97934.16;;;12.62;41.38
25130;BME280;13308;50.860;13.664;2023-02-28T14:11:56;97935.53;;;12.94;41.11
25130;BME280;13308;50.860;13.664;2023-02-28T14:16:59;97939.81;;;12.37;42.05
25130;BME280;13308;50.860;13.664;2023-02-28T14:19:27;97944.00;;;11.80;41.27
25130;BME280;13308;50.860;13.664;2023-02-28T14:25:17;97942.09;;;12.60;40.88
25130;BME280;13308;50.860;13.664;2023-02-28T14:27:45;97928.25;;;11.35;42.83
25130;BME280;13308;50.860;13.664;2023-02-28T14:38:25;97911.34;;;8.27;49.32
25130;BME280;13308;50.860;13.664;2023-02-28T14:40:55;97908.56;;;7.61;51.00
25130;BME280;13308;50.860;13.664;2023-02-28T14:43:23;97905.44;;;8.25;50.67
25130;BME280;13308;50.860;13.664;2023-02-28T14:45:51;97907.00;;;9.09;48.93
25130;BME280;13308;50.860;13.664;2023-02-28T14:48:18;97907.59;;;9.35;48.44
25130;BME280;13308;50.860;13.664;2023-02-28T14:50:56;97908.78;;;9.38;48.79
25130;BME280;13308;50.860;13.664;2023-02-28T14:53:23;97908.56;;;9.06;49.30
25130;BME280;13308;50.860;13.664;2023-02-28T14:55:50;97908.81;;;8.48;50.82
25130;BME280;13308;50.860;13.664;2023-02-28T14:58:25;97907.84;;;8.30;51.19
25130;BME280;13308;50.860;13.664;2023-02-28T15:00:53;97896.00;;;7.60;51.66
25130;BME280;13308;50.860;13.664;2023-02-28T15:03:30;97899.94;;;7.07;53.79
25130;BME280;13308;50.860;13.664;2023-02-28T15:06:02;97899.94;;;6.58;53.89
25130;BME280;13308;50.860;13.664;2023-02-28T15:08:28;97898.56;;;5.85;56.30
25130;BME280;13308;50.860;13.664;2023-02-28T15:11:04;97903.19;;;5.81;56.54
25130;BME280;13308;50.860;13.664;2023-02-28T15:13:39;97893.19;;;5.35;58.49
25130;BME280;13308;50.860;13.664;2023-02-28T15:16:09;97902.00;;;5.44;57.16
25130;BME280;13308;50.860;13.664;2023-02-28T15:18:57;97887.81;;;5.04;59.52
25130;BME280;13308;50.860;13.664;2023-02-28T15:21:32;97894.88;;;4.89;59.43
25130;BME280;13308;50.860;13.664;2023-02-28T15:26:43;97890.84;;;4.68;59.70
25130;BME280;13308;50.860;13.664;2023-02-28T15:29:15;97890.38;;;4.04;62.99
25130;BME280;13308;50.860;13.664;2023-02-28T15:31:49;97893.56;;;4.06;63.40
25130;BME280;13308;50.860;13.664;2023-02-28T15:34:27;97886.69;;;3.69;65.21
25130;BME280;13308;50.860;13.664;2023-02-28T15:36:54;97880.84;;;3.55;67.28
25130;BME280;13308;50.860;13.664;2023-02-28T15:39:25;97891.28;;;3.25;68.80
25130;BME280;13308;50.860;13.664;2023-02-28T15:41:52;97881.91;;;2.99;69.71
25130;BME280;13308;50.860;13.664;2023-02-28T15:44:28;97890.97;;;3.03;69.00
25130;BME280;13308;50.860;13.664;2023-02-28T15:46:59;97889.41;;;2.66;72.61
25130;BME280;13308;50.860;13.664;2023-02-28T15:49:27;97887.50;;;2.30;72.93
25130;BME280;13308;50.860;13.664;2023-02-28T15:51:56;97894.63;;;2.23;74.16
25130;BME280;13308;50.860;13.664;2023-02-28T15:54:24;97893.66;;;2.07;74.64
25130;BME280;13308;50.860;13.664;2023-02-28T15:56:54;97902.81;;;1.90;75.87
25130;BME280;13308;50.860;13.664;2023-02-28T15:59:23;97901.91;;;1.98;74.80
25130;BME280;13308;50.860;13.664;2023-02-28T16:04:34;97901.03;;;1.62;76.84
25130;BME280;13308;50.860;13.664;2023-02-28T16:07:04;97899.41;;;1.49;77.21
25130;BME280;13308;50.860;13.664;2023-02-28T16:09:31;97905.94;;;1.48;76.19
25130;BME280;13308;50.860;13.664;2023-02-28T16:11:59;97901.38;;;1.40;76.21
25130;BME280;13308;50.860;13.664;2023-02-28T16:14:27;97895.00;;;1.36;75.29
25130;BME280;13308;50.860;13.664;2023-02-28T16:17:07;97908.53;;;1.24;77.10
25130;BME280;13308;50.860;13.664;2023-02-28T16:19:34;97910.41;;;1.11;77.87
25130;BME280;13308;50.860;13.664;2023-02-28T16:21:59;97898.66;;;0.99;79.48
25130;BME280;13308;50.860;13.664;2023-02-28T16:24:25;97895.41;;;0.85;80.02
25130;BME280;13308;50.860;13.664;2023-02-28T16:26:52;97895.22;;;0.61;81.57
25130;BME280;13308;50.860;13.664;2023-02-28T16:29:24;97892.03;;;0.59;81.60
25130;BME280;13308;50.860;13.664;2023-02-28T16:31:51;97891.47;;;0.45;83.42
25130;BME280;13308;50.860;13.664;2023-02-28T16:34:18;97898.88;;;0.36;84.44
25130;BME280;13308;50.860;13.664;2023-02-28T16:36:46;97900.47;;;0.28;84.91
25130;BME280;13308;50.860;13.664;2023-02-28T16:39:11;97895.84;;;0.29;85.24
25130;BME280;13308;50.860;13.664;2023-02-28T16:41:37;97897.97;;;0.15;89.50
25130;BME280;13308;50.860;13.664;2023-02-28T16:44:04;97893.13;;;-0.08;86.65
25130;BME280;13308;50.860;13.664;2023-02-28T16:46:35;97895.59;;;-0.41;85.42
25130;BME280;13308;50.860;13.664;2023-02-28T16:49:01;97897.19;;;-0.57;86.07
25130;BME280;13308;50.860;13.664;2023-02-28T16:51:26;97899.75;;;-0.69;86.37
25130;BME280;13308;50.860;13.664;2023-02-28T16:53:51;97896.22;;;-0.78;86.24
25130;BME280;13308;50.860;13.664;2023-02-28T16:56:19;97904.19;;;-0.90;87.02
25130;BME280;13308;50.860;13.664;2023-02-28T16:58:45;97906.13;;;-0.90;88.34
25130;BME280;13308;50.860;13.664;2023-02-28T17:01:11;97896.56;;;-1.05;88.04
25130;BME280;13308;50.860;13.664;2023-02-28T17:03:37;97910.09;;;-1.05;89.13
25130;BME280;13308;50.860;13.664;2023-02-28T17:06:04;97897.81;;;-1.11;90.58
25130;BME280;13308;50.860;13.664;2023-02-28T17:08:30;97905.13;;;-1.20;91.18
25130;BME280;13308;50.860;13.664;2023-02-28T17:10:57;97908.63;;;-1.28;92.21
25130;BME280;13308;50.860;13.664;2023-02-28T17:13:23;97907.03;;;-1.29;93.25
25130;BME280;13308;50.860;13.664;2023-02-28T17:15:48;97908.91;;;-1.29;94.68
25130;BME280;13308;50.860;13.664;2023-02-28T17:18:15;97901.44;;;-1.32;95.67
25130;BME280;13308;50.860;13.664;2023-02-28T17:20:44;97908.59;;;-1.36;96.14
25130;BME280;13308;50.860;13.664;2023-02-28T17:23:10;97908.72;;;-1.41;95.89
25130;BME280;13308;50.860;13.664;2023-02-28T17:25:35;97914.63;;;-1.48;97.45
25130;BME280;13308;50.860;13.664;2023-02-28T17:28:01;97909.34;;;-1.53;97.85
25130;BME280;13308;50.860;13.664;2023-02-28T17:30:27;97903.59;;;-1.60;99.09
25130;BME280;13308;50.860;13.664;2023-02-28T17:32:53;97906.78;;;-1.58;100.00
25130;BME280;13308;50.860;13.664;2023-02-28T17:35:19;97910.59;;;-1.59;100.00
25130;BME280;13308;50.860;13.664;2023-02-28T17:37:44;97905.47;;;-1.69;100.00
25130;BME280;13308;50.860;13.664;2023-02-28T17:40:18;97913.84;;;-1.79;100.00
25130;BME280;13308;50.860;13.664;2023-02-28T17:42:44;97916.09;;;-1.81;100.00
25130;BME280;13308;50.860;13.664;2023-02-28T17:45:09;97915.75;;;-1.88;100.00
25130;BME280;13308;50.860;13.664;2023-02-28T17:47:35;97915.88;;;-1.93;100.00
25130;BME280;13308;50.860;13.664;2023-02-28T17:50:00;97913.81;;;-1.96;100.00
25130;BME280;13308;50.860;13.664;2023-02-28T17:52:26;97908.03;;;-2.03;100.00
25130;BME280;13308;50.860;13.664;2023-02-28T17:54:51;97911.06;;;-2.04;100.00
25130;BME280;13308;50.860;13.664;2023-02-28T17:57:16;97902.09;;;-2.13;100.00
25130;BME280;13308;50.860;13.664;2023-02-28T17:59:42;97901.91;;;-2.17;100.00
25130;BME280;13308;50.860;13.664;2023-02-28T18:02:11;97906.16;;;-2.24;100.00
25130;BME280;13308;50.860;13.664;2023-02-28T18:04:37;97893.94;;;-2.22;100.00
25130;BME280;13308;50.860;13.664;2023-02-28T18:07:02;97895.50;;;-2.29;100.00
25130;BME280;13308;50.860;13.664;2023-02-28T18:09:28;97894.88;;;-2.26;100.00
25130;BME280;13308;50.860;13.664;2023-02-28T18:11:54;97895.81;;;-2.31;100.00
25130;BME280;13308;50.860;13.664;2023-02-28T18:14:22;97901.81;;;-2.34;100.00
25130;BME280;13308;50.860;13.664;2023-02-28T18:16:49;97895.47;;;-2.38;100.00
25130;BME280;13308;50.860;13.664;2023-02-28T18:19:14;97889.50;;;-2.48;100.00
25130;BME280;13308;50.860;13.664;2023-02-28T18:21:42;97894.13;;;-2.49;100.00
25130;BME280;13308;50.860;13.664;2023-02-28T18:24:08;97887.72;;;-2.53;100.00
25130;BME280;13308;50.860;13.664;2023-02-28T18:26:35;97887.72;;;-2.53;100.00
25130;BME280;13308;50.860;13.664;2023-02-28T18:29:01;97890.06;;;-2.60;100.00
25130;BME280;13308;50.860;13.664;2023-02-28T18:31:27;97890.19;;;-2.65;100.00
25130;BME280;13308;50.860;13.664;2023-02-28T18:33:52;97892.72;;;-2.68;100.00
25130;BME280;13308;50.860;13.664;2023-02-28T18:36:19;97898.41;;;-2.70;100.00
25130;BME280;13308;50.860;13.664;2023-02-28T18:38:46;97892.34;;;-2.75;100.00
25130;BME280;13308;50.860;13.664;2023-02-28T18:41:12;97890.53;;;-2.80;100.00
25130;BME280;13308;50.860;13.664;2023-02-28T18:43:37;97894.06;;;-2.79;100.00
25130;BME280;13308;50.860;13.664;2023-02-28T18:46:04;97889.84;;;-2.72;100.00
25130;BME280;13308;50.860;13.664;2023-02-28T18:48:31;97892.47;;;-2.80;100.00
25130;BME280;13308;50.860;13.664;2023-02-28T18:50:56;97886.59;;;-2.82;100.00
25130;BME280;13308;50.860;13.664;2023-02-28T18:53:21;97891.47;;;-2.84;100.00
25130;BME280;13308;50.860;13.664;2023-02-28T18:55:48;97887.19;;;-2.85;100.00
25130;BME280;13308;50.860;13.664;2023-02-28T18:58:13;97892.28;;;-2.84;100.00
25130;BME280;13308;50.860;13.664;2023-02-28T19:00:38;97895.28;;;-2.85;100.00
25130;BME280;13308;50.860;13.664;2023-02-28T19:03:04;97889.06;;;-2.86;100.00
25130;BME280;13308;50.860;13.664;2023-02-28T19:05:30;97895.09;;;-2.89;100.00
25130;BME280;13308;50.860;13.664;2023-02-28T19:08:01;97886.50;;;-2.91;100.00
